Time;durP1;ratioP1;P1;durP2;ratioP2;P2;SDS_P1;SDS_P2;PMS_P1;PMS_P2;Temp;Humidity;BMP_temperature;BMP_pressure;BME280_temperature;BME280_humidity;BME280_pressure;Samples;Min_cycle;Max_cycle;Signal;HPM_P1;HPM_P2
2022/05/20 00:02:16;;;;;;;;;5.00;5.00;;;;;20.79;53.74;98942.66;4849710;28;102182;-82
2022/05/20 00:04:43;;;;;;;;;4.67;4.67;;;;;20.78;53.60;98941.00;4834862;28;107945;-82
2022/05/20 00:07:10;;;;;;;;;4.33;3.33;;;;;20.77;53.80;98934.69;4835077;28;103411;-82
2022/05/20 00:09:37;;;;;;;;;4.67;4.67;;;;;20.77;53.43;98940.16;4862186;28;102209;-82
2022/05/20 00:12:05;;;;;;;;;5.00;4.00;;;;;20.76;53.76;98934.91;4848504;28;102169;-82
2022/05/20 00:14:33;;;;;;;;;4.67;4.67;;;;;20.76;53.43;98929.44;4871772;28;103592;-82
2022/05/20 00:17:04;;;;;;;;;6.00;4.67;;;;;20.75;53.58;98925.88;4849606;28;101760;-82
2022/05/20 00:19:32;;;;;;;;;4.00;4.00;;;;;20.77;54.12;98933.84;4872140;28;101751;-82
2022/05/20 00:21:59;;;;;;;;;3.33;3.33;;;;;20.75;53.62;98928.63;4870422;28;109113;-82
2022/05/20 00:24:27;;;;;;;;;4.33;4.33;;;;;20.73;53.52;98932.69;4858776;28;108523;-82
2022/05/20 00:26:56;;;;;;;;;5.33;4.00;;;;;20.73;53.44;98927.22;4870110;28;102091;-82
2022/05/20 00:29:24;;;;;;;;;3.67;3.00;;;;;20.74;52.36;98924.22;4868179;28;102061;-82
2022/05/20 00:31:52;;;;;;;;;4.00;4.00;;;;;20.72;52.23;98923.63;4859005;28;102146;-82
2022/05/20 00:34:19;;;;;;;;;3.67;3.67;;;;;20.72;54.04;98920.03;4856641;28;103449;-82
2022/05/20 00:36:46;;;;;;;;;2.67;2.67;;;;;20.72;53.71;98925.53;4861288;28;101818;-82
2022/05/20 00:39:14;;;;;;;;;4.00;2.67;;;;;20.72;53.65;98933.78;4858561;28;101889;-82
2022/05/20 00:41:41;;;;;;;;;4.00;4.00;;;;;20.70;53.98;98928.56;4865977;28;103381;-82
2022/05/20 00:44:08;;;;;;;;;3.67;3.67;;;;;20.70;53.77;98928.56;4855176;28;104338;-82
2022/05/20 00:46:35;;;;;;;;;3.67;3.67;;;;;20.69;53.73;98921.41;4871688;28;102120;-82
2022/05/20 00:49:05;;;;;;;;;5.00;4.00;;;;;20.69;53.43;98910.41;4866247;28;101833;-81
2022/05/20 00:51:44;;;;;;;;;3.67;3.67;;;;;20.69;52.48;98920.56;4864739;28;101798;-81
2022/05/20 00:54:26;;;;;;;;;3.67;3.67;;;;;20.69;53.07;98915.06;4866340;28;103445;-82
2022/05/20 00:57:03;;;;;;;;;4.00;3.67;;;;;20.67;51.69;98903.53;4872430;28;101940;-82
2022/05/20 00:59:31;;;;;;;;;5.00;4.00;;;;;20.70;52.81;98914.81;4835933;28;101919;-80
2022/05/20 01:02:03;;;;;;;;;4.33;4.00;;;;;20.72;50.47;98909.06;4869389;28;101812;-82
2022/05/20 01:04:30;;;;;;;;;4.00;4.00;;;;;20.72;50.31;98909.88;4828237;28;108114;-82
2022/05/20 01:06:57;;;;;;;;;5.00;4.33;;;;;20.71;50.06;98904.66;4823157;28;101923;-82
2022/05/20 01:09:25;;;;;;;;;3.00;3.00;;;;;20.72;52.17;98906.31;4817790;28;102515;-82
2022/05/20 01:11:52;;;;;;;;;3.00;3.00;;;;;20.71;52.45;98908.25;4859942;28;103561;-82
2022/05/20 01:14:20;;;;;;;;;5.67;4.67;;;;;20.71;50.29;98902.75;4853383;28;103293;-82
2022/05/20 01:16:48;;;;;;;;;3.00;3.00;;;;;20.69;50.85;98904.91;4864585;28;103461;-82
2022/05/20 01:19:19;;;;;;;;;5.00;4.67;;;;;20.70;50.25;98901.09;4864190;28;101664;-82
2022/05/20 01:21:46;;;;;;;;;5.00;5.00;;;;;20.70;51.20;98901.09;4837279;28;101866;-82
2022/05/20 01:24:13;;;;;;;;;2.67;2.67;;;;;20.70;50.13;98906.59;4858636;28;103769;-82
2022/05/20 01:26:43;;;;;;;;;5.00;4.00;;;;;20.70;50.14;98912.09;4862954;28;102091;-82
2022/05/20 01:29:11;;;;;;;;;4.00;4.00;;;;;20.69;49.94;98906.84;4864416;28;102198;-82
2022/05/20 01:31:38;;;;;;;;;4.00;4.00;;;;;20.70;49.89;98900.25;4865714;28;102058;-82
2022/05/20 01:34:05;;;;;;;;;5.00;4.00;;;;;20.67;49.71;98907.06;4864878;28;103572;-81
2022/05/20 01:36:32;;;;;;;;;3.67;3.67;;;;;20.67;50.01;98909.03;4864766;28;103055;-81
2022/05/20 01:39:00;;;;;;;;;3.00;3.00;;;;;20.68;49.78;98907.91;4874210;28;103546;-82
2022/05/20 01:41:40;;;;;;;;;3.00;3.00;;;;;20.67;49.40;98912.56;4865997;28;102020;-82
2022/05/20 01:44:11;;;;;;;;;3.67;3.67;;;;;20.67;49.59;98904.34;4867221;28;108151;-82
2022/05/20 01:46:41;;;;;;;;;3.00;3.00;;;;;20.67;49.57;98906.28;4859591;28;103364;-82
2022/05/20 01:49:18;;;;;;;;;3.00;3.00;;;;;20.66;49.45;98904.59;4868726;28;102193;-82
2022/05/20 01:51:51;;;;;;;;;3.33;3.00;;;;;20.66;49.89;98899.13;4869020;28;101941;-82
2022/05/20 01:54:41;;;;;;;;;5.00;5.00;;;;;20.64;49.90;98910.34;4868629;28;103713;-82
2022/05/20 01:57:17;;;;;;;;;3.67;3.67;;;;;20.63;49.60;98911.44;4866024;28;102131;-82
2022/05/20 01:59:47;;;;;;;;;4.33;4.33;;;;;20.63;49.53;98910.59;4869808;28;101707;-82
2022/05/20 02:02:24;;;;;;;;;4.67;3.67;;;;;20.62;49.66;98903.47;4842304;28;102125;-82
2022/05/20 02:04:56;;;;;;;;;4.33;2.67;;;;;20.62;49.93;98901.56;4873080;28;103621;-82
2022/05/20 02:07:26;;;;;;;;;4.00;4.00;;;;;20.61;49.56;98907.28;4868862;28;102141;-82
2022/05/20 02:09:57;;;;;;;;;4.00;4.00;;;;;20.60;49.42;98900.13;4872065;28;101927;-82
2022/05/20 02:12:25;;;;;;;;;3.33;3.33;;;;;20.59;49.30;98887.47;4849034;28;103627;-82
2022/05/20 02:15:23;;;;;;;;;3.67;3.67;;;;;20.61;49.64;98896.31;4872404;28;103666;-82
2022/05/20 02:17:53;;;;;;;;;3.00;3.00;;;;;20.60;49.45;98889.16;4834349;28;102110;-82
2022/05/20 02:20:33;;;;;;;;;3.67;3.00;;;;;20.60;49.68;98881.75;4833463;28;101889;-82
2022/05/20 02:23:04;;;;;;;;;4.00;4.00;;;;;20.58;49.88;98889.41;4853113;28;102226;-82
2022/05/20 02:25:35;;;;;;;;;3.00;3.00;;;;;20.58;49.65;98903.13;4866470;28;107136;-81
2022/05/20 02:28:30;;;;;;;;;3.33;3.00;;;;;20.56;49.91;98891.59;4848778;28;103185;-81
2022/05/20 02:30:58;;;;;;;;;3.33;3.33;;;;;20.54;49.68;98881.94;4866678;28;103449;-81
2022/05/20 02:33:26;;;;;;;;;2.67;2.67;;;;;20.55;49.79;98880.84;4853630;28;101840;-81
2022/05/20 02:36:01;;;;;;;;;5.67;4.00;;;;;20.54;49.51;98873.69;4849248;28;103365;-81
2022/05/20 02:38:28;;;;;;;;;3.00;3.00;;;;;20.52;49.79;98865.72;4866802;28;102105;-81
2022/05/20 02:40:56;;;;;;;;;4.00;4.00;;;;;20.53;49.31;98850.06;4866921;28;102189;-81
2022/05/20 02:43:23;;;;;;;;;3.33;3.33;;;;;20.52;49.64;98867.63;4851408;28;103396;-81
2022/05/20 02:45:50;;;;;;;;;3.00;3.00;;;;;20.53;49.23;98866.56;4866357;28;103717;-81
2022/05/20 02:48:19;;;;;;;;;2.67;2.67;;;;;20.53;49.66;98872.06;4851180;28;101869;-81
2022/05/20 02:50:49;;;;;;;;;3.00;2.00;;;;;20.52;49.87;98871.22;4850471;28;101824;-81
2022/05/20 02:53:16;;;;;;;;;3.67;3.33;;;;;20.52;49.85;98870.38;4868794;28;102164;-81
2022/05/20 02:55:44;;;;;;;;;2.67;2.67;;;;;20.51;49.90;98869.56;4870442;28;103400;-81
2022/05/20 03:04:09;;;;;;;;;4.00;3.67;;;;;20.50;49.83;98870.63;4868669;28;102138;-81
2022/05/20 03:06:29;;;;;;;;;2.33;2.33;;;;;20.48;49.55;98865.41;4871535;28;108167;-81
2022/05/20 03:08:56;;;;;;;;;3.00;2.33;;;;;20.48;49.93;98870.06;4866564;28;102684;-81
2022/05/20 03:11:23;;;;;;;;;3.00;3.00;;;;;20.48;49.79;98864.59;4868526;28;102166;-81
2022/05/20 03:13:50;;;;;;;;;3.33;3.33;;;;;20.47;49.48;98882.97;4868734;28;102041;-81
2022/05/20 03:16:17;;;;;;;;;4.00;3.33;;;;;20.47;49.59;98885.72;4869540;28;103599;-82
2022/05/20 03:18:45;;;;;;;;;3.00;3.00;;;;;20.47;49.53;98890.38;4870106;28;101763;-81
2022/05/20 03:21:12;;;;;;;;;1.67;1.67;;;;;20.48;49.42;98892.88;4869270;28;101900;-82
2022/05/20 03:23:39;;;;;;;;;3.00;3.00;;;;;20.47;49.27;98890.38;4874446;28;101861;-82
2022/05/20 03:26:06;;;;;;;;;3.67;3.67;;;;;20.46;49.85;98895.06;4869925;28;103449;-82
2022/05/20 03:28:34;;;;;;;;;4.00;3.00;;;;;20.46;49.27;98895.06;4874387;28;104422;-81
2022/05/20 03:31:07;;;;;;;;;3.00;2.67;;;;;20.46;49.58;98896.97;4872409;28;102724;-82
2022/05/20 03:33:34;;;;;;;;;4.33;3.67;;;;;20.43;49.53;98895.56;4869206;28;102092;-81
2022/05/20 03:36:02;;;;;;;;;3.67;3.00;;;;;20.41;49.66;98885.91;4871129;28;103380;-83
2022/05/20 03:38:29;;;;;;;;;3.00;3.00;;;;;20.43;49.86;98892.81;4867854;28;102251;-81
2022/05/20 03:40:56;;;;;;;;;2.00;2.00;;;;;20.42;49.60;98888.41;4865185;28;103251;-82
2022/05/20 03:43:24;;;;;;;;;3.00;3.00;;;;;20.42;49.40;98884.84;4865633;28;104095;-82
2022/05/20 03:45:54;;;;;;;;;2.67;2.67;;;;;20.43;49.28;98889.25;4863091;28;103465;-81
2022/05/20 03:48:22;;;;;;;;;1.00;1.00;;;;;20.42;49.25;98888.41;4860441;28;102408;-82
2022/05/20 03:50:49;;;;;;;;;2.33;2.00;;;;;20.43;49.47;98876.34;4870473;28;103182;-82
2022/05/20 03:53:16;;;;;;;;;3.33;3.33;;;;;20.45;49.27;98876.06;4864014;28;102198;-82
2022/05/20 03:55:43;;;;;;;;;3.50;3.50;;;;;20.43;49.52;98876.34;4866948;28;103338;-82
2022/05/20 03:58:11;;;;;;;;;4.00;3.00;;;;;20.43;49.38;98873.59;4870041;28;101915;-82
2022/05/20 04:03:24;;;;;;;;;2.67;2.67;;;;;20.41;49.64;98866.69;4872638;28;102065;-82
2022/05/20 04:05:54;;;;;;;;;3.33;1.67;;;;;20.40;49.56;98868.59;4869557;28;103377;-81
2022/05/20 04:08:21;;;;;;;;;1.33;1.33;;;;;20.39;49.38;98872.47;4867410;28;101786;-82
2022/05/20 04:10:48;;;;;;;;;2.33;2.33;;;;;20.40;49.33;98871.34;4860986;28;101644;-81
2022/05/20 04:13:15;;;;;;;;;3.33;2.00;;;;;20.39;49.63;98872.47;4869901;28;102091;-82
2022/05/20 04:15:42;;;;;;;;;2.67;1.67;;;;;20.40;49.10;98874.09;4864991;28;103423;-81
2022/05/20 04:18:09;;;;;;;;;2.00;1.67;;;;;20.38;49.29;98865.31;4865557;28;102137;-82
2022/05/20 04:20:36;;;;;;;;;2.00;2.00;;;;;20.42;49.14;98868.34;4867844;28;103301;-82
2022/05/20 04:23:03;;;;;;;;;2.00;2.00;;;;;20.39;49.27;98864.22;4873331;28;102089;-82
2022/05/20 04:25:30;;;;;;;;;3.00;2.67;;;;;20.42;49.09;98868.34;4869606;28;104754;-81
2022/05/20 04:27:57;;;;;;;;;2.00;2.00;;;;;20.42;49.14;98860.13;4871524;28;101826;-82
2022/05/20 04:30:24;;;;;;;;;2.67;2.00;;;;;20.41;48.88;98864.78;4873818;28;102533;-82
2022/05/20 04:32:51;;;;;;;;;2.00;1.67;;;;;20.42;49.35;98862.84;4869779;28;102108;-82
2022/05/20 04:35:18;;;;;;;;;4.00;3.00;;;;;20.41;49.37;98875.75;4856918;28;103331;-81
2022/05/20 04:37:45;;;;;;;;;2.00;2.00;;;;;20.41;49.18;98884.00;4871378;28;101794;-82
2022/05/20 04:40:13;;;;;;;;;2.67;2.67;;;;;20.41;48.98;98878.50;4868791;28;102184;-82
2022/05/20 04:48:12;;;;;;;;;1.67;1.67;;;;;20.42;48.96;98891.16;4862323;28;102057;-82
2022/05/20 04:50:40;;;;;;;;;3.00;3.00;;;;;20.42;48.61;98876.59;4868600;28;102346;-81
2022/05/20 04:53:07;;;;;;;;;2.00;2.00;;;;;20.43;48.79;98894.75;4868918;28;102366;-81
2022/05/20 04:55:34;;;;;;;;;4.00;3.00;;;;;20.44;48.82;98891.72;4855849;28;103342;-82
2022/05/20 04:58:02;;;;;;;;;2.00;2.00;;;;;20.43;48.96;98890.09;4850366;28;101786;-82
2022/05/20 05:00:29;;;;;;;;;1.67;1.67;;;;;20.42;48.93;98893.91;4856875;28;101691;-80
2022/05/20 05:02:57;;;;;;;;;2.00;2.00;;;;;20.42;49.37;98891.16;4861608;28;102948;-80
2022/05/20 05:05:27;;;;;;;;;2.33;2.33;;;;;20.44;50.63;98894.47;4862821;28;104506;-80
2022/05/20 05:07:55;;;;;;;;;1.00;1.00;;;;;20.46;51.63;98888.72;4870545;28;101731;-80
2022/05/20 05:10:24;;;;;;;;;1.67;1.67;;;;;20.46;51.60;98892.31;4865221;28;101818;-81
2022/05/20 05:12:51;;;;;;;;;2.67;2.00;;;;;20.46;52.72;98889.56;4849369;28;101769;-80
2022/05/20 05:15:19;;;;;;;;;1.67;1.67;;;;;20.48;52.39;98881.06;4863610;28;103394;-80
2022/05/20 05:20:32;;;;;;;;;2.00;2.00;;;;;20.49;52.83;98890.94;4869023;28;101802;-80
2022/05/20 05:23:00;;;;;;;;;1.67;1.67;;;;;20.47;52.90;98874.75;4866645;28;102362;-81
2022/05/20 05:25:29;;;;;;;;;2.00;1.67;;;;;20.47;53.27;98887.63;4869365;28;103831;-81
2022/05/20 05:27:56;;;;;;;;;2.00;2.00;;;;;20.47;53.45;98891.22;4868324;28;102304;-80
2022/05/20 05:30:23;;;;;;;;;1.67;1.67;;;;;20.47;53.24;98884.91;4867314;28;102513;-81
2022/05/20 05:32:50;;;;;;;;;1.67;1.67;;;;;20.46;53.85;98884.06;4853228;28;102070;-81
2022/05/20 05:35:20;;;;;;;;;3.00;2.00;;;;;20.46;53.64;98894.22;4857210;28;103391;-81
2022/05/20 05:37:47;;;;;;;;;1.33;1.33;;;;;20.45;53.26;98887.88;4875331;28;102137;-80
2022/05/20 05:40:17;;;;;;;;;2.00;2.00;;;;;20.44;53.67;98877.97;4872987;28;102213;-80
2022/05/20 05:42:44;;;;;;;;;1.67;0.67;;;;;20.44;54.16;98886.22;4870862;28;104962;-80
2022/05/20 05:45:13;;;;;;;;;2.33;1.67;;;;;20.44;54.41;98897.22;4869473;28;105494;-80
2022/05/20 05:47:40;;;;;;;;;1.33;1.33;;;;;20.45;54.72;98900.78;4856941;28;102555;-81
2022/05/20 05:50:08;;;;;;;;;1.67;1.67;;;;;20.44;54.41;98899.97;4871794;28;101625;-81
2022/05/20 05:52:35;;;;;;;;;2.33;2.33;;;;;20.44;54.77;98894.47;4874552;28;104832;-81
2022/05/20 05:55:03;;;;;;;;;2.67;2.00;;;;;20.45;54.82;98893.38;4874887;28;103368;-81
2022/05/20 05:57:30;;;;;;;;;1.67;1.33;;;;;20.45;54.67;98898.03;4876038;28;101807;-81
2022/05/20 05:59:57;;;;;;;;;3.67;2.67;;;;;20.44;54.90;98902.72;4870009;28;102053;-81
2022/05/20 06:02:24;;;;;;;;;1.67;1.67;;;;;20.43;55.23;98895.56;4873328;28;102131;-83
2022/05/20 06:04:52;;;;;;;;;2.00;2.00;;;;;20.44;54.94;98897.22;4873166;28;103677;-81
2022/05/20 06:07:20;;;;;;;;;2.00;2.00;;;;;20.45;55.01;98898.88;4851527;28;102087;-81
2022/05/20 06:09:47;;;;;;;;;1.67;1.67;;;;;20.45;55.20;98890.63;4854870;28;101754;-81
2022/05/20 06:12:14;;;;;;;;;3.00;3.00;;;;;20.45;55.38;98892.56;4874322;28;102048;-81
2022/05/20 06:14:41;;;;;;;;;2.00;1.67;;;;;20.47;55.22;98891.22;4874016;28;103377;-81
2022/05/20 06:17:11;;;;;;;;;2.00;2.00;;;;;20.48;54.98;98900.28;4873348;28;101903;-81
2022/05/20 06:19:42;;;;;;;;;2.00;2.00;;;;;20.47;55.18;98891.22;4870367;28;102321;-82
2022/05/20 06:22:09;;;;;;;;;3.33;3.33;;;;;20.48;54.52;98892.88;4870453;28;102125;-81
2022/05/20 06:24:36;;;;;;;;;3.00;2.00;;;;;20.50;54.70;98895.34;4871301;28;103408;-82
2022/05/20 06:27:04;;;;;;;;;1.00;1.00;;;;;20.52;54.79;98897.84;4873658;28;102120;-82
2022/05/20 06:29:31;;;;;;;;;2.67;2.67;;;;;20.51;55.18;98899.78;4871430;28;103078;-82
2022/05/20 06:31:58;;;;;;;;;3.00;2.00;;;;;20.53;54.52;98894.03;4870457;28;101809;-80
2022/05/20 06:34:25;;;;;;;;;2.00;2.00;;;;;20.54;54.71;98901.16;4863807;28;103451;-80
2022/05/20 06:39:50;;;;;;;;;1.67;1.67;;;;;20.57;54.69;98906.16;4864913;28;102136;-83
2022/05/20 06:42:19;;;;;;;;;1.67;1.67;;;;;20.57;54.46;98907.00;4871230;28;102153;-85
2022/05/20 06:44:46;;;;;;;;;3.00;3.00;;;;;20.56;54.47;98920.97;4852261;28;103637;-83
2022/05/20 06:47:13;;;;;;;;;1.67;1.67;;;;;20.55;54.38;98919.31;4863255;28;101941;-83
2022/05/20 06:49:40;;;;;;;;;2.00;1.33;;;;;20.55;54.37;98914.66;4862716;28;102021;-82
2022/05/20 06:52:07;;;;;;;;;3.67;2.00;;;;;20.57;54.06;98914.41;4870772;28;102459;-84
2022/05/20 06:54:54;;;;;;;;;1.67;1.67;;;;;20.58;54.30;98913.31;4869361;28;105002;-83
2022/05/20 06:57:22;;;;;;;;;2.00;2.00;;;;;20.58;53.93;98914.13;4870066;28;101853;-82
2022/05/20 06:59:49;;;;;;;;;3.00;2.00;;;;;20.58;53.97;98916.06;4853434;28;101965;-83
2022/05/20 07:02:16;;;;;;;;;0.67;0.67;;;;;20.59;54.12;98915.78;4870275;28;104115;-83
2022/05/20 07:04:48;;;;;;;;;2.00;2.00;;;;;20.61;54.15;98918.28;4863848;28;103064;-82
2022/05/20 07:07:17;;;;;;;;;2.00;2.00;;;;;20.63;53.49;98916.09;4863483;28;101767;-86
2022/05/20 07:09:44;;;;;;;;;2.00;2.00;;;;;20.64;53.52;98923.25;4868371;28;101791;-87
2022/05/20 07:12:11;;;;;;;;;1.00;1.00;;;;;20.63;53.65;98932.59;4868693;28;101843;-87
2022/05/20 07:14:38;;;;;;;;;2.00;1.00;;;;;20.64;53.75;98934.25;4874478;28;103359;-87
2022/05/20 07:17:05;;;;;;;;;2.33;1.67;;;;;20.63;53.96;98932.59;4873936;28;103471;-87
2022/05/20 07:19:32;;;;;;;;;1.67;1.67;;;;;20.64;53.97;98942.50;4869582;28;102609;-87
2022/05/20 07:22:00;;;;;;;;;2.00;1.00;;;;;20.63;53.89;98952.66;4868960;28;101864;-87
2022/05/20 07:24:27;;;;;;;;;2.33;2.33;;;;;20.64;54.58;98957.06;4867122;28;105255;-87
2022/05/20 07:26:54;;;;;;;;;2.00;2.00;;;;;20.65;54.84;98955.16;4871019;28;102183;-86
2022/05/20 07:29:21;;;;;;;;;1.67;1.67;;;;;20.64;54.94;98953.47;4847504;28;102000;-86
2022/05/20 07:31:48;;;;;;;;;2.00;2.00;;;;;20.66;55.09;98956.81;4862598;28;101863;-86
2022/05/20 07:34:15;;;;;;;;;1.67;1.67;;;;;20.65;55.31;98963.41;4863230;28;104264;-86
2022/05/20 07:36:42;;;;;;;;;1.67;1.67;;;;;20.65;56.06;98960.66;4871907;28;101732;-86
2022/05/20 07:39:09;;;;;;;;;0.67;0.67;;;;;20.65;56.45;98960.66;4869530;28;101706;-87
2022/05/20 07:41:36;;;;;;;;;2.00;2.00;;;;;20.64;56.14;98951.56;4866035;28;104081;-82
2022/05/20 07:44:04;;;;;;;;;2.00;2.00;;;;;20.63;56.55;98958.16;4863256;28;103390;-87
2022/05/20 07:46:31;;;;;;;;;2.00;2.00;;;;;20.63;56.92;98960.06;4863528;28;102118;-87
2022/05/20 07:48:58;;;;;;;;;2.33;1.33;;;;;20.62;56.94;98951.00;4876130;28;101937;-86
2022/05/20 07:51:26;;;;;;;;;1.00;1.00;;;;;20.62;56.39;98950.19;4872661;28;101959;-87
2022/05/20 07:54:14;;;;;;;;;1.67;1.67;;;;;20.62;56.45;98936.44;4872315;28;103466;-86
2022/05/20 07:56:44;;;;;;;;;3.00;2.00;;;;;20.62;56.45;98942.78;4856404;28;102223;-87
2022/05/20 07:59:14;;;;;;;;;1.67;1.67;;;;;20.62;56.82;98931.78;4841907;28;105152;-86
2022/05/20 08:01:44;;;;;;;;;2.33;2.00;;;;;20.63;56.71;98938.06;4870454;28;101822;-87
2022/05/20 08:07:14;;;;;;;;;2.67;2.67;;;;;20.63;57.43;98933.41;4855256;28;101661;-86
2022/05/20 08:09:42;;;;;;;;;1.00;1.00;;;;;20.64;57.30;98932.34;4867610;28;109158;-86
2022/05/20 08:12:09;;;;;;;;;2.00;2.00;;;;;20.64;57.31;98926.00;4866669;28;101819;-86
2022/05/20 08:14:45;;;;;;;;;1.33;1.33;;;;;20.63;57.74;98921.59;4863725;28;103680;-86
2022/05/20 08:17:12;;;;;;;;;1.67;1.67;;;;;20.64;57.13;98928.75;4864667;28;102509;-86
2022/05/20 08:19:40;;;;;;;;;2.00;1.67;;;;;20.63;57.86;98919.69;4874904;28;102002;-86
2022/05/20 08:22:07;;;;;;;;;1.33;1.33;;;;;20.63;57.35;98916.09;4874114;28;104374;-79
2022/05/20 08:24:34;;;;;;;;;2.00;2.00;;;;;20.64;57.67;98928.75;4876122;28;103423;-86
2022/05/20 08:27:02;;;;;;;;;1.67;0.67;;;;;20.63;57.66;98916.94;4873745;28;102156;-87
2022/05/20 08:29:32;;;;;;;;;1.67;1.67;;;;;20.65;57.55;98922.19;4869924;28;101660;-86
2022/05/20 08:32:00;;;;;;;;;1.00;1.00;;;;;20.64;57.67;98921.34;4871443;28;101762;-87
2022/05/20 08:34:27;;;;;;;;;2.67;2.00;;;;;20.65;57.49;98922.19;4867614;28;103333;-87
2022/05/20 08:36:57;;;;;;;;;1.67;1.00;;;;;20.66;57.85;98915.59;4870380;28;110000;-86
2022/05/20 08:39:27;;;;;;;;;3.00;2.00;;;;;20.66;58.11;98921.09;4832388;28;101787;-87
2022/05/20 08:41:54;;;;;;;;;3.00;2.00;;;;;20.67;58.26;98922.75;4830032;28;101825;-87
2022/05/20 08:44:22;;;;;;;;;1.67;1.33;;;;;20.67;58.26;98914.53;4816662;28;103479;-87
2022/05/20 08:46:49;;;;;;;;;1.67;1.67;;;;;20.67;58.31;98918.06;4827581;28;101814;-87
2022/05/20 08:49:18;;;;;;;;;1.67;1.67;;;;;20.67;57.98;98926.31;4825878;28;102064;-86
2022/05/20 08:51:50;;;;;;;;;3.00;1.67;;;;;20.68;58.23;98916.16;4846049;28;102178;-87
2022/05/20 08:54:17;;;;;;;;;2.67;1.67;;;;;20.67;58.37;98911.78;4829101;28;103374;-86
2022/05/20 08:56:44;;;;;;;;;1.67;1.33;;;;;20.68;58.13;98913.41;4845758;28;102139;-86
2022/05/20 08:59:13;;;;;;;;;2.00;2.00;;;;;20.69;58.27;98910.41;4826589;28;101844;-86
2022/05/20 09:01:43;;;;;;;;;2.00;2.00;;;;;20.70;57.93;98909.34;4827871;28;101883;-86
2022/05/20 09:04:15;;;;;;;;;1.00;1.00;;;;;20.70;58.13;98903.00;4834169;28;103418;-86
2022/05/20 09:07:01;;;;;;;;;2.00;1.33;;;;;20.72;58.65;98903.56;4836695;28;101890;-86
2022/05/20 09:09:49;;;;;;;;;1.00;1.00;;;;;20.71;57.98;98896.41;4834599;28;102211;-87
2022/05/20 09:12:37;;;;;;;;;2.00;2.00;;;;;20.70;58.17;98894.75;4824429;28;102109;-86
2022/05/20 09:18:02;;;;;;;;;0.67;0.67;;;;;20.71;58.68;98896.41;4821800;28;101862;-87
2022/05/20 09:20:29;;;;;;;;;1.00;0.67;;;;;20.71;58.71;98888.19;4825201;28;101668;-87
2022/05/20 09:23:06;;;;;;;;;2.33;2.33;;;;;20.72;58.17;98893.41;4826922;28;101930;-87
2022/05/20 09:25:34;;;;;;;;;1.00;0.67;;;;;20.72;58.20;98884.31;4829862;28;107950;-87
2022/05/20 09:28:15;;;;;;;;;0.67;0.67;;;;;20.73;58.29;98889.56;4826420;28;101834;-87
2022/05/20 09:30:45;;;;;;;;;2.67;2.00;;;;;20.73;58.53;98886.81;4848277;28;103743;-86
2022/05/20 09:33:16;;;;;;;;;0.67;0.67;;;;;20.75;58.27;98875.56;4836756;28;102057;-86
2022/05/20 09:35:47;;;;;;;;;0.67;0.67;;;;;20.76;58.45;98879.97;4833133;28;104615;-86
2022/05/20 09:38:31;;;;;;;;;2.00;1.00;;;;;20.75;58.41;98868.16;4849029;28;101749;-87
2022/05/20 09:40:59;;;;;;;;;1.00;1.00;;;;;20.77;58.50;98862.38;4866466;28;101882;-86
2022/05/20 09:43:31;;;;;;;;;1.00;1.00;;;;;20.77;58.26;98857.72;4875370;28;102098;-86
2022/05/20 09:46:00;;;;;;;;;1.00;1.00;;;;;20.77;58.35;98867.88;4876172;28;103471;-87
2022/05/20 09:48:36;;;;;;;;;0.67;0.67;;;;;20.77;58.15;98857.72;4855229;28;105453;-87
2022/05/20 09:51:12;;;;;;;;;1.67;1.67;;;;;20.78;58.32;98853.06;4874801;28;102025;-86
2022/05/20 09:53:41;;;;;;;;;1.00;1.00;;;;;20.79;58.33;98844.56;4870820;28;101877;-86
2022/05/20 09:56:21;;;;;;;;;1.33;1.00;;;;;20.79;57.86;98850.06;4873207;28;103910;-86
2022/05/20 09:59:27;;;;;;;;;1.00;1.00;;;;;20.81;58.14;98853.34;4871276;28;101822;-87
2022/05/20 10:02:02;;;;;;;;;0.67;0.67;;;;;20.80;57.68;98845.41;4875462;28;101779;-87
2022/05/20 10:04:59;;;;;;;;;1.67;1.67;;;;;20.82;57.65;98832.19;4872923;28;102223;-86
2022/05/20 10:07:54;;;;;;;;;3.00;1.00;;;;;20.82;57.57;98834.94;4849888;28;108242;-86
2022/05/20 10:10:42;;;;;;;;;2.00;1.00;;;;;20.83;58.18;98836.63;4824433;28;101998;-87
2022/05/20 10:13:16;;;;;;;;;1.00;1.00;;;;;20.84;57.80;98841.03;4865483;28;101926;-83
2022/05/20 10:15:46;;;;;;;;;1.00;1.00;;;;;20.84;57.85;98827.28;4842062;28;102118;-86
2022/05/20 10:18:34;;;;;;;;;1.00;1.00;;;;;20.85;58.31;98834.41;4854483;28;103734;-87
2022/05/20 10:21:13;;;;;;;;;2.00;1.00;;;;;20.85;57.60;98831.66;4854927;28;102203;-86
2022/05/20 10:24:18;;;;;;;;;1.00;1.00;;;;;20.86;58.16;98836.09;4867074;28;101901;-86
2022/05/20 10:26:56;;;;;;;;;0.67;0.67;;;;;20.87;57.95;98846.00;4855897;28;102017;-86
2022/05/20 10:35:18;;;;;;;;;0.67;0.67;;;;;20.90;57.55;98834.47;4826976;28;101831;-85
2022/05/20 10:37:51;;;;;;;;;1.00;1.00;;;;;20.90;57.72;98837.22;4857440;28;101853;-86
2022/05/20 10:40:37;;;;;;;;;2.00;2.00;;;;;20.91;57.84;98841.63;4861171;28;103435;-86
2022/05/20 10:43:07;;;;;;;;;1.00;1.00;;;;;20.91;58.02;98836.13;4867755;28;101618;-87
2022/05/20 10:48:49;;;;;;;;;1.00;1.00;;;;;20.93;57.80;98825.72;4879818;28;101826;-87
2022/05/20 10:51:30;;;;;;;;;3.33;0.67;;;;;20.93;57.51;98829.28;4869595;28;108025;-86
2022/05/20 10:54:18;;;;;;;;;0.67;0.67;;;;;20.93;58.10;98832.03;4857726;28;101844;-86
2022/05/20 10:57:25;;;;;;;;;1.00;1.00;;;;;20.96;57.44;98827.09;4868282;28;101789;-86
2022/05/20 11:00:01;;;;;;;;;2.00;2.00;;;;;20.97;58.14;98820.50;4871000;28;102188;-86
2022/05/20 11:02:59;;;;;;;;;1.67;1.67;;;;;20.97;57.78;98810.34;4853709;28;103680;-86
2022/05/20 11:05:38;;;;;;;;;0.33;0.33;;;;;20.97;57.51;98813.09;4867478;28;101962;-85
2022/05/20 11:08:33;;;;;;;;;1.33;1.33;;;;;20.98;57.55;98809.25;4873699;28;101824;-86
2022/05/20 11:11:06;;;;;;;;;1.00;0.67;;;;;20.98;57.83;98795.50;4869871;28;101821;-86
2022/05/20 11:13:58;;;;;;;;;0.67;0.67;;;;;20.99;57.61;98791.66;4868637;28;103536;-87
2022/05/20 11:16:33;;;;;;;;;0.67;0.67;;;;;20.99;57.65;98786.16;4866580;28;101692;-86
2022/05/20 11:19:18;;;;;;;;;1.00;0.67;;;;;21.02;57.65;98791.16;4868818;28;102587;-86
2022/05/20 11:21:59;;;;;;;;;0.67;0.67;;;;;21.03;57.71;98790.03;4861360;28;101839;-86
2022/05/20 11:24:40;;;;;;;;;1.00;1.00;;;;;21.03;57.68;98784.53;4875160;28;103670;-86
2022/05/20 11:27:22;;;;;;;;;0.00;0.00;;;;;21.03;57.30;98781.78;4857353;28;101702;-87
2022/05/20 11:30:00;;;;;;;;;0.00;0.00;;;;;21.06;57.32;98774.94;4868380;28;101805;-86
2022/05/20 11:32:40;;;;;;;;;0.67;0.67;;;;;21.07;57.14;98771.94;4861700;28;102015;-87
2022/05/20 11:35:36;;;;;;;;;0.67;0.67;;;;;21.07;57.35;98763.69;4871640;28;108293;-86
2022/05/20 11:38:31;;;;;;;;;0.67;0.67;;;;;21.07;57.23;98760.94;4864243;28;101698;-87
2022/05/20 11:41:07;;;;;;;;;0.67;0.67;;;;;21.09;57.40;98763.41;4872759;28;101862;-87
2022/05/20 11:43:50;;;;;;;;;0.67;0.67;;;;;21.09;57.35;98772.47;4871134;28;101856;-87
2022/05/20 11:46:54;;;;;;;;;1.00;1.00;;;;;21.11;57.29;98762.06;4856101;28;107993;-86
2022/05/20 11:49:38;;;;;;;;;1.00;1.00;;;;;21.11;57.53;98770.31;4840723;28;105357;-87
2022/05/20 11:52:28;;;;;;;;;0.33;0.33;;;;;21.13;57.44;98764.56;4863795;28;105169;-87
2022/05/20 11:55:02;;;;;;;;;1.00;1.00;;;;;21.14;57.83;98761.56;4864454;28;101864;-86
2022/05/20 11:57:54;;;;;;;;;1.00;1.00;;;;;21.15;57.18;98759.63;4852669;28;103408;-87
2022/05/20 12:00:21;;;;;;;;;2.00;1.33;;;;;21.15;57.96;98752.22;4823006;28;104387;-86
2022/05/20 12:03:00;;;;;;;;;0.67;0.67;;;;;21.16;57.55;98756.63;4853321;28;102077;-87
2022/05/20 12:05:30;;;;;;;;;1.00;1.00;;;;;21.18;57.48;98757.19;4837806;28;102148;-86
2022/05/20 12:07:57;;;;;;;;;1.00;1.00;;;;;21.19;57.30;98750.59;4854592;28;103490;-86
2022/05/20 12:10:30;;;;;;;;;0.00;0.00;;;;;21.20;57.11;98752.25;4864238;28;101897;-86
2022/05/20 12:13:17;;;;;;;;;0.00;0.00;;;;;21.21;57.35;98753.88;4872312;28;101925;-86
2022/05/20 12:15:47;;;;;;;;;1.33;0.67;;;;;21.23;57.48;98753.63;4865466;28;101814;-86
2022/05/20 12:24:32;;;;;;;;;0.00;0.00;;;;;21.24;57.65;98742.38;4873019;28;101754;-86
2022/05/20 12:26:59;;;;;;;;;0.67;0.67;;;;;21.26;57.52;98742.09;4867300;28;102026;-86